Time;durP1;ratioP1;P1;durP2;ratioP2;P2;SDS_P1;SDS_P2;PMS_P1;PMS_P2;Temp;Humidity;BMP_temperature;BMP_pressure;BME280_temperature;BME280_humidity;BME280_pressure;Samples;Min_cycle;Max_cycle;Signal;HPM_P1;HPM_P2
2021/11/14 00:00:33;;;;;;;7.38;5.88;;;;;;;;;;2043699;28;20027;-81
2021/11/14 00:01:52;;;;;;;9.05;6.45;;;;;;;;;;2049350;28;20032;-81
2021/11/14 00:03:12;;;;;;;9.02;6.57;;;;;;;;;;2043674;28;20031;-81
2021/11/14 00:04:31;;;;;;;7.70;6.88;;;;;;;;;;2046711;28;20027;-81
2021/11/14 00:05:50;;;;;;;8.82;6.68;;;;;;;;;;2052012;28;20025;-81
2021/11/14 00:07:09;;;;;;;10.23;6.68;;;;;;;;;;2047681;28;20035;-81
2021/11/14 00:08:27;;;;;;;9.07;6.20;;;;;;;;;;2045646;28;20546;-81
2021/11/14 00:09:46;;;;;;;8.32;7.30;;;;;;;;;;2046491;28;20106;-81
2021/11/14 00:11:10;;;;;;;8.85;6.28;;;;;;;;;;2052186;28;20134;-80
2021/11/14 00:12:29;;;;;;;8.80;6.20;;;;;;;;;;2050931;28;20027;-81
2021/11/14 00:13:48;;;;;;;11.10;6.55;;;;;;;;;;2043370;28;20036;-81
2021/11/14 00:15:09;;;;;;;8.57;6.60;;;;;;;;;;2049257;28;20554;-81
2021/11/14 00:16:28;;;;;;;9.70;6.03;;;;;;;;;;2042640;28;20036;-81
2021/11/14 00:17:47;;;;;;;7.00;5.68;;;;;;;;;;2048653;28;20031;-81
2021/11/14 00:19:06;;;;;;;8.13;5.93;;;;;;;;;;2047881;29;20122;-81
2021/11/14 00:20:25;;;;;;;12.30;6.50;;;;;;;;;;2045974;28;20039;-81
2021/11/14 00:21:44;;;;;;;8.82;6.65;;;;;;;;;;2043685;28;20047;-81
2021/11/14 00:23:03;;;;;;;8.77;6.13;;;;;;;;;;2047342;28;20435;-81
2021/11/14 00:24:22;;;;;;;8.10;5.97;;;;;;;;;;2051375;28;20040;-81
2021/11/14 00:25:41;;;;;;;6.97;6.38;;;;;;;;;;2044989;28;20439;-81
2021/11/14 00:27:00;;;;;;;7.00;6.40;;;;;;;;;;2047688;28;20032;-81
2021/11/14 00:28:19;;;;;;;5.65;5.13;;;;;;;;;;2050348;28;20031;-81
2021/11/14 00:29:38;;;;;;;7.22;6.50;;;;;;;;;;2045871;28;20118;-81
2021/11/14 00:30:57;;;;;;;7.45;6.30;;;;;;;;;;2049821;28;20038;-81
2021/11/14 00:32:16;;;;;;;7.93;5.07;;;;;;;;;;2046383;28;20055;-81
2021/11/14 00:33:35;;;;;;;8.77;5.63;;;;;;;;;;2047673;29;20483;-82
2021/11/14 00:34:54;;;;;;;6.50;5.95;;;;;;;;;;2046337;28;20035;-81
2021/11/14 00:36:15;;;;;;;6.50;5.85;;;;;;;;;;2042998;28;20043;-81
2021/11/14 00:37:36;;;;;;;9.80;6.47;;;;;;;;;;2052642;28;20039;-81
2021/11/14 00:38:56;;;;;;;7.25;6.28;;;;;;;;;;2042842;28;20211;-81
2021/11/14 00:40:16;;;;;;;9.10;6.95;;;;;;;;;;2042447;28;20036;-81
2021/11/14 00:41:36;;;;;;;9.40;6.57;;;;;;;;;;2049920;28;20043;-81
2021/11/14 00:42:55;;;;;;;7.18;5.70;;;;;;;;;;2048011;29;20031;-81
2021/11/14 00:44:15;;;;;;;8.63;5.82;;;;;;;;;;2046777;28;20066;-81
2021/11/14 00:45:35;;;;;;;8.68;5.75;;;;;;;;;;2045309;28;20059;-81
2021/11/14 00:46:54;;;;;;;8.55;6.60;;;;;;;;;;2043877;28;20031;-81
2021/11/14 00:48:13;;;;;;;8.95;5.65;;;;;;;;;;2046558;28;20115;-81
2021/11/14 00:49:32;;;;;;;5.03;4.53;;;;;;;;;;2043881;28;20045;-81
2021/11/14 00:50:51;;;;;;;7.07;5.65;;;;;;;;;;2047298;29;20454;-81
2021/11/14 00:52:10;;;;;;;6.38;5.78;;;;;;;;;;2048078;28;20122;-81
2021/11/14 00:53:29;;;;;;;6.38;5.55;;;;;;;;;;2048737;28;20180;-81
2021/11/14 00:54:48;;;;;;;8.07;6.00;;;;;;;;;;2046015;28;20098;-81
2021/11/14 00:56:08;;;;;;;8.15;5.95;;;;;;;;;;2044505;29;20039;-81
2021/11/14 00:57:27;;;;;;;11.13;6.38;;;;;;;;;;2045430;28;20039;-81
2021/11/14 00:58:45;;;;;;;6.03;5.43;;;;;;;;;;2044060;29;20043;-81
2021/11/14 01:00:07;;;;;;;8.68;6.00;;;;;;;;;;2044979;28;20031;-81
2021/11/14 01:01:26;;;;;;;10.18;6.28;;;;;;;;;;2049909;28;20127;-81
2021/11/14 01:02:46;;;;;;;7.68;5.75;;;;;;;;;;2046049;29;20047;-81
2021/11/14 01:04:05;;;;;;;10.05;5.80;;;;;;;;;;2046444;28;20023;-80
2021/11/14 01:05:25;;;;;;;7.45;6.05;;;;;;;;;;2042427;28;20035;-81
2021/11/14 01:06:44;;;;;;;7.20;5.90;;;;;;;;;;2042782;28;20044;-80
2021/11/14 01:08:04;;;;;;;20.77;6.68;;;;;;;;;;2040133;28;20450;-81
2021/11/14 01:09:23;;;;;;;12.68;5.78;;;;;;;;;;2046032;28;20107;-80
2021/11/14 01:10:47;;;;;;;19.92;6.75;;;;;;;;;;2045911;28;20039;-80
2021/11/14 01:12:07;;;;;;;29.27;7.13;;;;;;;;;;2051436;28;20028;-80
2021/11/14 01:13:26;;;;;;;222.52;17.63;;;;;;;;;;2046960;28;20051;-81
2021/11/14 01:14:45;;;;;;;42.67;7.78;;;;;;;;;;2050378;28;20435;-80
2021/11/14 01:16:05;;;;;;;42.80;7.10;;;;;;;;;;2049064;28;20043;-80
2021/11/14 01:17:24;;;;;;;59.42;8.07;;;;;;;;;;2050309;28;20035;-81
2021/11/14 01:18:43;;;;;;;54.80;8.00;;;;;;;;;;2041845;28;20027;-80
2021/11/14 01:20:02;;;;;;;51.70;7.75;;;;;;;;;;2042386;28;20039;-80
2021/11/14 01:21:21;;;;;;;114.20;9.40;;;;;;;;;;2042436;28;20036;-80
2021/11/14 01:22:41;;;;;;;67.53;7.68;;;;;;;;;;2043737;28;20027;-80
2021/11/14 01:24:00;;;;;;;37.50;7.05;;;;;;;;;;2048428;28;20033;-80
2021/11/14 01:25:19;;;;;;;154.63;10.95;;;;;;;;;;2049195;28;20106;-80
2021/11/14 01:26:38;;;;;;;72.25;7.15;;;;;;;;;;2045522;28;20066;-80
2021/11/14 01:27:57;;;;;;;283.15;19.10;;;;;;;;;;2052458;28;20028;-80
2021/11/14 01:29:16;;;;;;;110.95;9.27;;;;;;;;;;2042047;28;20094;-80
2021/11/14 01:30:39;;;;;;;189.85;11.75;;;;;;;;;;2042423;28;20463;-81
2021/11/14 01:31:58;;;;;;;68.35;7.53;;;;;;;;;;2042181;28;20063;-80
2021/11/14 01:33:18;;;;;;;246.80;14.80;;;;;;;;;;2060112;28;20063;-81
2021/11/14 01:34:37;;;;;;;147.35;10.50;;;;;;;;;;2044122;28;20032;-80
2021/11/14 01:35:57;;;;;;;221.63;15.38;;;;;;;;;;2047252;28;20122;-81
2021/11/14 01:37:16;;;;;;;169.80;11.90;;;;;;;;;;2042974;28;20031;-81
2021/11/14 01:38:35;;;;;;;220.57;16.10;;;;;;;;;;2041200;28;20499;-81
2021/11/14 01:39:54;;;;;;;194.18;15.48;;;;;;;;;;2040985;28;20027;-81
2021/11/14 01:41:13;;;;;;;132.05;11.13;;;;;;;;;;2051492;28;20035;-81
2021/11/14 01:42:33;;;;;;;121.75;9.07;;;;;;;;;;2044170;28;20040;-81
2021/11/14 01:43:52;;;;;;;173.52;13.15;;;;;;;;;;2042672;28;20032;-81
2021/11/14 01:45:11;;;;;;;123.60;9.85;;;;;;;;;;2055133;28;20023;-81
2021/11/14 01:46:30;;;;;;;134.23;9.70;;;;;;;;;;2047083;29;20039;-81
2021/11/14 01:47:49;;;;;;;137.68;10.85;;;;;;;;;;2044157;28;20023;-81
2021/11/14 01:49:08;;;;;;;120.28;8.95;;;;;;;;;;2048311;28;20020;-81
2021/11/14 01:50:27;;;;;;;182.45;11.30;;;;;;;;;;2045938;28;20019;-81
2021/11/14 01:51:46;;;;;;;63.13;6.05;;;;;;;;;;2047569;28;20063;-80
2021/11/14 01:53:07;;;;;;;84.32;6.63;;;;;;;;;;2047754;28;20031;-81
2021/11/14 01:54:25;;;;;;;74.50;6.55;;;;;;;;;;2044951;28;20031;-81
2021/11/14 01:55:45;;;;;;;96.95;8.52;;;;;;;;;;2043054;28;20407;-81
2021/11/14 01:57:04;;;;;;;74.03;7.03;;;;;;;;;;2051127;28;20513;-81
2021/11/14 01:58:24;;;;;;;151.75;10.30;;;;;;;;;;2047954;28;20503;-80
2021/11/14 01:59:43;;;;;;;195.45;10.00;;;;;;;;;;2043979;28;20031;-80
2021/11/14 02:01:15;;;;;;;146.57;9.82;;;;;;;;;;2043879;28;20044;-81
2021/11/14 02:02:34;;;;;;;184.18;9.40;;;;;;;;;;2044932;28;20154;-81
2021/11/14 02:03:55;;;;;;;123.80;7.05;;;;;;;;;;2043293;28;20045;-81
2021/11/14 02:05:14;;;;;;;85.85;5.78;;;;;;;;;;2042300;28;20028;-81
2021/11/14 02:06:34;;;;;;;172.07;9.20;;;;;;;;;;2046883;28;20039;-80
2021/11/14 02:07:54;;;;;;;163.40;8.38;;;;;;;;;;2046787;28;20035;-81
2021/11/14 02:09:15;;;;;;;153.85;7.25;;;;;;;;;;2048325;28;20059;-81
2021/11/14 02:10:34;;;;;;;79.30;5.93;;;;;;;;;;2044195;28;20495;-81
2021/11/14 02:11:53;;;;;;;215.07;11.05;;;;;;;;;;2054987;28;20029;-81
2021/11/14 02:13:12;;;;;;;125.07;6.93;;;;;;;;;;2047378;28;20071;-81
2021/11/14 02:14:31;;;;;;;117.65;7.03;;;;;;;;;;2051567;28;20062;-80
2021/11/14 02:15:50;;;;;;;126.80;6.93;;;;;;;;;;2044665;28;20035;-81
2021/11/14 02:17:09;;;;;;;107.32;7.25;;;;;;;;;;2044503;29;20035;-80
2021/11/14 02:18:28;;;;;;;146.43;7.78;;;;;;;;;;2049099;28;20043;-80
2021/11/14 02:19:52;;;;;;;175.73;7.88;;;;;;;;;;2053198;28;20062;-80
2021/11/14 02:21:11;;;;;;;108.40;8.13;;;;;;;;;;2054475;28;20062;-80
2021/11/14 02:22:29;;;;;;;261.20;12.45;;;;;;;;;;2041445;28;20040;-80
2021/11/14 02:23:48;;;;;;;195.13;10.43;;;;;;;;;;2049678;28;20036;-80
2021/11/14 02:25:08;;;;;;;165.68;7.57;;;;;;;;;;2046347;28;20027;-80
2021/11/14 02:26:27;;;;;;;179.13;8.80;;;;;;;;;;2047472;28;20495;-80
2021/11/14 02:27:47;;;;;;;125.38;6.93;;;;;;;;;;2049482;28;20029;-81
2021/11/14 02:29:06;;;;;;;187.05;8.93;;;;;;;;;;2044797;28;20035;-81
2021/11/14 02:30:24;;;;;;;176.50;7.88;;;;;;;;;;2047450;28;20460;-80
2021/11/14 02:31:44;;;;;;;96.13;6.75;;;;;;;;;;2049074;28;20031;-81
2021/11/14 02:33:03;;;;;;;178.98;8.98;;;;;;;;;;2047527;28;20438;-81
2021/11/14 02:34:22;;;;;;;165.02;6.68;;;;;;;;;;2044246;28;20468;-81
2021/11/14 02:35:42;;;;;;;250.70;11.32;;;;;;;;;;2042560;29;20027;-81
2021/11/14 02:37:01;;;;;;;154.65;8.20;;;;;;;;;;2045562;28;20031;-81
2021/11/14 02:38:20;;;;;;;140.35;6.85;;;;;;;;;;2042151;28;20697;-82
2021/11/14 02:39:39;;;;;;;148.60;7.28;;;;;;;;;;2047220;28;20031;-81
2021/11/14 02:40:58;;;;;;;170.43;9.10;;;;;;;;;;2046012;28;20062;-81
2021/11/14 02:42:18;;;;;;;174.88;8.10;;;;;;;;;;2045572;28;20107;-81
2021/11/14 02:43:38;;;;;;;127.55;6.88;;;;;;;;;;2047190;28;20122;-81
2021/11/14 02:44:57;;;;;;;140.20;6.90;;;;;;;;;;2052556;28;20020;-83
2021/11/14 02:46:16;;;;;;;250.77;10.88;;;;;;;;;;2058099;28;20039;-81
2021/11/14 02:47:35;;;;;;;327.48;12.93;;;;;;;;;;2047810;28;20039;-81
2021/11/14 02:48:53;;;;;;;179.90;9.77;;;;;;;;;;2042975;28;20039;-81
2021/11/14 02:50:12;;;;;;;156.07;8.15;;;;;;;;;;2048665;28;20023;-81
2021/11/14 02:51:32;;;;;;;191.77;10.48;;;;;;;;;;2045898;28;20024;-81
2021/11/14 02:52:51;;;;;;;222.02;10.65;;;;;;;;;;2048388;28;20082;-81
2021/11/14 02:54:10;;;;;;;232.32;10.02;;;;;;;;;;2057252;28;20043;-81
2021/11/14 02:55:29;;;;;;;274.08;12.43;;;;;;;;;;2044946;28;20023;-81
2021/11/14 02:56:48;;;;;;;182.77;9.75;;;;;;;;;;2044374;28;20024;-81
2021/11/14 02:58:07;;;;;;;192.32;8.70;;;;;;;;;;2048469;28;20027;-81
2021/11/14 02:59:26;;;;;;;250.68;11.05;;;;;;;;;;2045064;29;20027;-81
2021/11/14 03:00:53;;;;;;;185.93;11.13;;;;;;;;;;2045159;28;20032;-81
2021/11/14 03:02:12;;;;;;;178.75;9.95;;;;;;;;;;2050178;28;20027;-81
2021/11/14 03:03:32;;;;;;;211.35;10.68;;;;;;;;;;2045567;28;20023;-81
2021/11/14 03:04:51;;;;;;;180.40;10.70;;;;;;;;;;2048877;28;20027;-81
2021/11/14 03:06:10;;;;;;;186.60;10.52;;;;;;;;;;2046482;28;20040;-81
2021/11/14 03:07:29;;;;;;;198.85;10.32;;;;;;;;;;2044932;28;20122;-81
2021/11/14 03:08:48;;;;;;;214.30;10.80;;;;;;;;;;2043757;28;20553;-81
2021/11/14 03:10:08;;;;;;;137.73;8.55;;;;;;;;;;2052207;28;20050;-81
2021/11/14 03:11:27;;;;;;;234.55;11.70;;;;;;;;;;2047977;28;20016;-81
2021/11/14 03:13:12;;;;;;;205.63;11.65;;;;;;;;;;2047551;28;20028;-81
2021/11/14 03:14:31;;;;;;;97.82;7.63;;;;;;;;;;2048405;28;20039;-81
2021/11/14 03:15:52;;;;;;;115.13;7.40;;;;;;;;;;2046762;28;20054;-80
2021/11/14 03:17:11;;;;;;;135.52;9.10;;;;;;;;;;2048637;28;20498;-80
2021/11/14 03:18:30;;;;;;;129.18;9.25;;;;;;;;;;2051429;28;20067;-80
2021/11/14 03:19:49;;;;;;;122.63;6.68;;;;;;;;;;2046077;28;20035;-81
2021/11/14 03:21:08;;;;;;;130.35;8.13;;;;;;;;;;2043083;28;20036;-80
2021/11/14 03:22:27;;;;;;;168.45;9.90;;;;;;;;;;2044241;28;20102;-80
2021/11/14 03:23:46;;;;;;;252.25;15.45;;;;;;;;;;2046013;28;20043;-80
2021/11/14 03:25:06;;;;;;;136.52;8.15;;;;;;;;;;2047802;28;20062;-80
2021/11/14 03:26:25;;;;;;;145.43;9.38;;;;;;;;;;2062700;28;20031;-81
2021/11/14 03:27:44;;;;;;;130.85;8.38;;;;;;;;;;2044606;28;20145;-80
2021/11/14 03:29:03;;;;;;;130.27;8.25;;;;;;;;;;2043389;28;20023;-81
2021/11/14 03:30:23;;;;;;;145.95;9.20;;;;;;;;;;2063788;28;20024;-80
2021/11/14 03:31:46;;;;;;;163.98;9.43;;;;;;;;;;2043384;28;20019;-81
2021/11/14 03:33:06;;;;;;;145.10;8.50;;;;;;;;;;2052280;28;20031;-81
2021/11/14 03:34:25;;;;;;;81.35;6.32;;;;;;;;;;2047254;28;20035;-81
2021/11/14 03:35:49;;;;;;;140.35;8.85;;;;;;;;;;2044064;28;20047;-81
2021/11/14 03:37:12;;;;;;;117.63;7.60;;;;;;;;;;2045398;28;20024;-81
2021/11/14 03:38:34;;;;;;;141.75;8.48;;;;;;;;;;2047209;28;20036;-81
2021/11/14 03:39:53;;;;;;;76.22;7.03;;;;;;;;;;2046273;28;20030;-81
2021/11/14 03:41:13;;;;;;;103.40;6.72;;;;;;;;;;2051888;28;20043;-81
2021/11/14 03:42:32;;;;;;;78.50;6.80;;;;;;;;;;2044057;28;20352;-80
2021/11/14 03:43:51;;;;;;;74.47;6.93;;;;;;;;;;2047090;28;20040;-80
2021/11/14 03:45:11;;;;;;;69.45;7.75;;;;;;;;;;2047474;28;20039;-81
2021/11/14 03:46:30;;;;;;;103.40;7.78;;;;;;;;;;2044851;28;20035;-80
2021/11/14 03:47:49;;;;;;;54.88;5.90;;;;;;;;;;2043685;28;20035;-81
2021/11/14 03:49:08;;;;;;;117.90;7.35;;;;;;;;;;2044726;28;20023;-81
2021/11/14 03:50:28;;;;;;;90.45;7.75;;;;;;;;;;2049091;28;20434;-81
2021/11/14 03:51:47;;;;;;;115.00;7.78;;;;;;;;;;2042508;29;20038;-81
2021/11/14 03:53:07;;;;;;;98.28;7.30;;;;;;;;;;2044732;28;20043;-80
2021/11/14 03:54:26;;;;;;;97.35;6.82;;;;;;;;;;2051660;28;20450;-80
2021/11/14 03:55:45;;;;;;;117.20;7.47;;;;;;;;;;2045757;28;20034;-80
2021/11/14 03:57:05;;;;;;;113.43;6.72;;;;;;;;;;2044641;28;20031;-80
2021/11/14 03:58:24;;;;;;;95.13;5.68;;;;;;;;;;2048221;28;20031;-80
2021/11/14 03:59:43;;;;;;;91.72;6.65;;;;;;;;;;2045899;28;20031;-80
2021/11/14 04:01:04;;;;;;;76.78;5.30;;;;;;;;;;2044287;28;20054;-81
2021/11/14 04:02:23;;;;;;;103.40;6.15;;;;;;;;;;2048902;28;20035;-80
2021/11/14 04:03:42;;;;;;;109.15;6.97;;;;;;;;;;2049074;28;20036;-80
2021/11/14 04:05:01;;;;;;;88.18;5.72;;;;;;;;;;2046551;28;20036;-80
2021/11/14 04:06:21;;;;;;;68.72;5.60;;;;;;;;;;2043928;28;20031;-81
2021/11/14 04:07:40;;;;;;;95.55;6.18;;;;;;;;;;2039304;28;20110;-80
2021/11/14 04:08:59;;;;;;;99.78;6.45;;;;;;;;;;2043760;28;20039;-81
2021/11/14 04:10:18;;;;;;;95.55;7.75;;;;;;;;;;2043794;28;20035;-80
2021/11/14 04:11:37;;;;;;;78.25;5.57;;;;;;;;;;2044454;28;20031;-80
2021/11/14 04:12:56;;;;;;;148.52;9.88;;;;;;;;;;2045154;28;20482;-80
2021/11/14 04:14:15;;;;;;;81.90;6.25;;;;;;;;;;2044247;28;20515;-81
2021/11/14 04:15:35;;;;;;;72.97;5.38;;;;;;;;;;2047560;28;20035;-80
2021/11/14 04:16:54;;;;;;;73.60;5.45;;;;;;;;;;2046315;28;20031;-81
2021/11/14 04:18:13;;;;;;;72.25;4.78;;;;;;;;;;2046961;28;20043;-81
2021/11/14 04:19:32;;;;;;;73.95;6.35;;;;;;;;;;2048755;28;20047;-81
2021/11/14 04:20:51;;;;;;;55.80;4.80;;;;;;;;;;2047604;28;20074;-80
2021/11/14 04:22:11;;;;;;;36.08;3.90;;;;;;;;;;2044878;28;20035;-82
2021/11/14 04:23:30;;;;;;;85.35;7.20;;;;;;;;;;2049701;28;20031;-81
2021/11/14 04:24:48;;;;;;;92.10;5.78;;;;;;;;;;2050951;28;20029;-81
2021/11/14 04:26:07;;;;;;;33.90;3.70;;;;;;;;;;2047390;29;20467;-80
2021/11/14 04:27:26;;;;;;;53.70;5.30;;;;;;;;;;2047530;29;20031;-80
2021/11/14 04:28:47;;;;;;;56.35;4.50;;;;;;;;;;2045567;28;20039;-81
2021/11/14 04:30:07;;;;;;;54.88;4.93;;;;;;;;;;2044678;28;20430;-81
2021/11/14 04:31:25;;;;;;;36.33;3.58;;;;;;;;;;2046584;28;20035;-81
2021/11/14 04:32:44;;;;;;;35.10;3.33;;;;;;;;;;2054391;28;20035;-81
2021/11/14 04:34:03;;;;;;;40.08;4.00;;;;;;;;;;2048806;28;20026;-80
2021/11/14 04:35:23;;;;;;;62.28;4.95;;;;;;;;;;2050260;28;20043;-80
2021/11/14 04:36:42;;;;;;;40.92;3.72;;;;;;;;;;2042105;28;20035;-80
2021/11/14 04:38:01;;;;;;;42.50;3.88;;;;;;;;;;2042854;28;20023;-80
2021/11/14 04:39:20;;;;;;;82.28;5.30;;;;;;;;;;2043094;29;20027;-80
2021/11/14 04:40:41;;;;;;;82.60;5.43;;;;;;;;;;2047926;28;20070;-81
2021/11/14 04:42:03;;;;;;;51.95;3.85;;;;;;;;;;2046930;28;20039;-81
2021/11/14 04:43:22;;;;;;;42.55;4.05;;;;;;;;;;2048667;28;20039;-80
2021/11/14 04:44:41;;;;;;;67.40;4.50;;;;;;;;;;2049513;28;20020;-80
2021/11/14 04:46:00;;;;;;;87.88;4.70;;;;;;;;;;2047059;28;20037;-80
2021/11/14 04:47:19;;;;;;;93.93;6.47;;;;;;;;;;2043050;28;20067;-80
2021/11/14 04:48:38;;;;;;;105.25;7.45;;;;;;;;;;2044620;28;20027;-80
2021/11/14 04:49:56;;;;;;;55.45;4.63;;;;;;;;;;2041982;29;20015;-81
2021/11/14 04:51:15;;;;;;;85.40;6.55;;;;;;;;;;2043316;28;20479;-80
2021/11/14 04:52:34;;;;;;;59.63;4.68;;;;;;;;;;2042275;28;20028;-79
2021/11/14 04:53:53;;;;;;;81.13;6.07;;;;;;;;;;2051307;28;20039;-81
2021/11/14 04:55:13;;;;;;;55.65;4.93;;;;;;;;;;2046794;28;20519;-81
2021/11/14 04:56:32;;;;;;;48.78;5.38;;;;;;;;;;2045554;28;20047;-81
2021/11/14 04:57:51;;;;;;;81.95;6.10;;;;;;;;;;2045101;28;20138;-81
2021/11/14 04:59:11;;;;;;;50.80;5.60;;;;;;;;;;2048189;28;20054;-81
2021/11/14 05:00:35;;;;;;;83.72;6.82;;;;;;;;;;2046775;28;20043;-81
2021/11/14 05:01:54;;;;;;;41.38;4.85;;;;;;;;;;2045201;29;20024;-81
2021/11/14 05:03:14;;;;;;;52.75;5.45;;;;;;;;;;2046609;28;20475;-82
2021/11/14 05:04:32;;;;;;;59.47;5.88;;;;;;;;;;2050597;28;20094;-81
2021/11/14 05:05:56;;;;;;;36.67;4.53;;;;;;;;;;2044095;28;20555;-81
2021/11/14 05:07:15;;;;;;;71.38;6.90;;;;;;;;;;2045817;28;20415;-81
2021/11/14 05:08:35;;;;;;;49.08;4.70;;;;;;;;;;2043343;28;20039;-82
2021/11/14 05:09:54;;;;;;;62.53;6.03;;;;;;;;;;2047273;28;20061;-82
2021/11/14 05:11:13;;;;;;;23.30;3.72;;;;;;;;;;2047187;28;20023;-81
2021/11/14 05:12:32;;;;;;;61.83;4.95;;;;;;;;;;2047354;28;20048;-82
2021/11/14 05:13:51;;;;;;;21.70;3.70;;;;;;;;;;2048761;28;20035;-81
2021/11/14 05:15:10;;;;;;;64.15;6.03;;;;;;;;;;2044862;28;20039;-82
2021/11/14 05:16:29;;;;;;;28.25;4.07;;;;;;;;;;2043192;28;20023;-82
2021/11/14 05:17:48;;;;;;;40.08;4.20;;;;;;;;;;2043877;28;20039;-82
2021/11/14 05:19:07;;;;;;;33.60;4.65;;;;;;;;;;2044659;28;20055;-82
2021/11/14 05:20:26;;;;;;;37.97;4.70;;;;;;;;;;2046345;28;20032;-81
2021/11/14 05:21:45;;;;;;;26.77;4.13;;;;;;;;;;2047665;28;20039;-82
2021/11/14 05:23:04;;;;;;;23.52;3.97;;;;;;;;;;2044762;28;20031;-82
2021/11/14 05:24:23;;;;;;;28.90;4.60;;;;;;;;;;2047931;28;20039;-81
2021/11/14 05:25:42;;;;;;;46.13;5.47;;;;;;;;;;2047197;28;20031;-81
2021/11/14 05:27:01;;;;;;;20.15;4.55;;;;;;;;;;2044601;28;20404;-80
2021/11/14 05:28:20;;;;;;;17.50;3.90;;;;;;;;;;2047529;28;20031;-82
2021/11/14 05:29:39;;;;;;;13.18;4.15;;;;;;;;;;2046639;28;20023;-81
2021/11/14 05:30:58;;;;;;;11.02;3.88;;;;;;;;;;2048491;28;20375;-81
2021/11/14 05:32:17;;;;;;;15.05;4.65;;;;;;;;;;2045274;28;20028;-81
2021/11/14 05:33:36;;;;;;;10.75;4.45;;;;;;;;;;2047941;28;20047;-81
2021/11/14 05:34:55;;;;;;;10.85;4.18;;;;;;;;;;2052404;28;20035;-81
2021/11/14 05:36:14;;;;;;;17.25;4.22;;;;;;;;;;2050043;28;20036;-81
2021/11/14 05:37:33;;;;;;;11.88;4.60;;;;;;;;;;2044841;29;20044;-81
2021/11/14 05:38:52;;;;;;;14.15;4.70;;;;;;;;;;2045901;29;20082;-81
2021/11/14 05:40:11;;;;;;;5.93;3.65;;;;;;;;;;2048322;28;20031;-81
2021/11/14 05:41:30;;;;;;;12.02;4.55;;;;;;;;;;2045149;28;20043;-81
2021/11/14 05:42:49;;;;;;;8.18;4.13;;;;;;;;;;2044033;28;20503;-81
2021/11/14 05:44:08;;;;;;;9.13;4.60;;;;;;;;;;2047901;28;20047;-81
2021/11/14 05:45:27;;;;;;;8.73;4.25;;;;;;;;;;2049781;28;20602;-81
2021/11/14 05:46:46;;;;;;;6.45;4.22;;;;;;;;;;2047980;28;20030;-81
2021/11/14 05:48:05;;;;;;;5.78;4.15;;;;;;;;;;2049252;28;20034;-81
2021/11/14 05:49:24;;;;;;;6.65;3.65;;;;;;;;;;2049532;28;20035;-82
2021/11/14 05:50:43;;;;;;;5.45;3.70;;;;;;;;;;2046568;28;20114;-81
2021/11/14 05:52:01;;;;;;;7.07;4.32;;;;;;;;;;2061391;28;20066;-81
2021/11/14 05:53:21;;;;;;;4.78;3.78;;;;;;;;;;2045088;28;20044;-81
2021/11/14 05:54:40;;;;;;;5.78;3.53;;;;;;;;;;2053172;28;20035;-80
2021/11/14 05:55:58;;;;;;;6.20;3.55;;;;;;;;;;2053068;28;20030;-81
2021/11/14 05:57:17;;;;;;;4.50;3.67;;;;;;;;;;2053730;28;20773;-81
2021/11/14 06:01:25;;;;;;;4.03;3.13;;;;;;;;;;2047733;29;20028;-81
2021/11/14 06:02:50;;;;;;;3.88;3.00;;;;;;;;;;2048537;28;20043;-81
2021/11/14 06:04:23;;;;;;;4.55;3.08;;;;;;;;;;2046725;28;20156;-81
2021/11/14 06:05:41;;;;;;;4.53;3.40;;;;;;;;;;2046830;28;20423;-81
2021/11/14 06:07:00;;;;;;;4.07;2.80;;;;;;;;;;2045865;28;20027;-81
2021/11/14 06:08:22;;;;;;;4.53;3.17;;;;;;;;;;2044539;28;20054;-81
2021/11/14 06:09:41;;;;;;;3.10;2.80;;;;;;;;;;2048111;28;20023;-80
2021/11/14 06:11:00;;;;;;;4.40;3.13;;;;;;;;;;2049252;28;20027;-81
2021/11/14 06:12:19;;;;;;;4.20;2.78;;;;;;;;;;2047574;28;20384;-81
2021/11/14 06:13:37;;;;;;;7.30;3.13;;;;;;;;;;2049260;28;20505;-81
2021/11/14 06:14:57;;;;;;;6.43;2.50;;;;;;;;;;2054533;28;20054;-81
2021/11/14 06:16:15;;;;;;;3.30;2.47;;;;;;;;;;2052702;28;20027;-81
2021/11/14 06:17:35;;;;;;;3.67;2.63;;;;;;;;;;2055896;28;20039;-80
2021/11/14 06:18:55;;;;;;;4.13;2.60;;;;;;;;;;2050906;28;20526;-81
2021/11/14 06:20:15;;;;;;;2.75;2.25;;;;;;;;;;2049258;28;20035;-81
2021/11/14 06:21:34;;;;;;;5.28;2.67;;;;;;;;;;2045449;28;20031;-81
2021/11/14 06:22:53;;;;;;;4.38;2.38;;;;;;;;;;2047740;28;20039;-80
2021/11/14 06:24:12;;;;;;;3.35;2.53;;;;;;;;;;2047203;28;20036;-80
2021/11/14 06:25:31;;;;;;;5.20;2.72;;;;;;;;;;2043583;28;20028;-80
2021/11/14 06:26:50;;;;;;;6.35;2.35;;;;;;;;;;2053449;28;20023;-80
2021/11/14 06:28:09;;;;;;;2.90;2.22;;;;;;;;;;2044279;28;20418;-81
2021/11/14 06:29:28;;;;;;;3.55;2.47;;;;;;;;;;2046291;28;20048;-81
2021/11/14 06:30:46;;;;;;;5.18;2.28;;;;;;;;;;2044360;28;20031;-80
2021/11/14 06:32:06;;;;;;;4.95;1.90;;;;;;;;;;2048867;28;20365;-80
2021/11/14 06:33:25;;;;;;;3.88;2.28;;;;;;;;;;2047029;28;20141;-80
2021/11/14 06:34:45;;;;;;;4.03;1.55;;;;;;;;;;2048482;28;20603;-80
2021/11/14 06:36:05;;;;;;;2.03;1.80;;;;;;;;;;2048566;28;20058;-80
2021/11/14 06:37:24;;;;;;;3.90;1.80;;;;;;;;;;2044263;28;20043;-81
2021/11/14 06:38:43;;;;;;;7.13;1.88;;;;;;;;;;2046158;28;20035;-80
2021/11/14 06:40:02;;;;;;;2.65;1.50;;;;;;;;;;2043196;28;20031;-81
2021/11/14 06:41:21;;;;;;;5.95;1.70;;;;;;;;;;2047865;28;20031;-81
2021/11/14 06:42:40;;;;;;;5.07;2.00;;;;;;;;;;2043725;28;20047;-80
2021/11/14 06:43:59;;;;;;;3.25;1.80;;;;;;;;;;2043372;28;20076;-80
2021/11/14 06:45:18;;;;;;;3.28;1.67;;;;;;;;;;2050124;28;20035;-80
2021/11/14 06:46:37;;;;;;;5.00;1.90;;;;;;;;;;2047504;28;20027;-80
2021/11/14 06:47:55;;;;;;;3.90;1.60;;;;;;;;;;2053723;28;20073;-81
2021/11/14 06:49:14;;;;;;;4.13;1.80;;;;;;;;;;2048396;28;20031;-80
2021/11/14 06:50:33;;;;;;;3.17;1.63;;;;;;;;;;2052303;28;20569;-80
2021/11/14 06:51:52;;;;;;;3.30;1.63;;;;;;;;;;2050823;28;20483;-81
2021/11/14 06:53:11;;;;;;;3.80;2.05;;;;;;;;;;2046255;28;20502;-80
2021/11/14 06:54:29;;;;;;;5.38;1.75;;;;;;;;;;2044472;28;20032;-82
2021/11/14 06:55:49;;;;;;;2.55;1.70;;;;;;;;;;2047459;28;20039;-81
2021/11/14 06:57:07;;;;;;;6.75;1.70;;;;;;;;;;2046202;28;20040;-80
2021/11/14 06:58:26;;;;;;;2.38;1.65;;;;;;;;;;2047007;28;20039;-81
2021/11/14 06:59:46;;;;;;;2.20;1.55;;;;;;;;;;2043082;28;20031;-81
2021/11/14 07:01:05;;;;;;;3.28;1.52;;;;;;;;;;2044657;28;20036;-80
2021/11/14 07:02:24;;;;;;;7.05;1.90;;;;;;;;;;2041778;28;20031;-81
2021/11/14 07:03:43;;;;;;;3.42;2.05;;;;;;;;;;2044855;28;20664;-80
2021/11/14 07:05:02;;;;;;;1.88;1.42;;;;;;;;;;2047790;28;20023;-80
2021/11/14 07:06:21;;;;;;;2.17;1.10;;;;;;;;;;2047196;28;20019;-79
2021/11/14 07:07:41;;;;;;;1.80;1.23;;;;;;;;;;2044362;28;20499;-79
2021/11/14 07:09:00;;;;;;;5.47;1.98;;;;;;;;;;2040800;28;20068;-79
2021/11/14 07:10:20;;;;;;;3.33;1.40;;;;;;;;;;2046617;28;20075;-79
2021/11/14 07:11:39;;;;;;;2.15;1.30;;;;;;;;;;2045033;28;20024;-79
2021/11/14 07:12:58;;;;;;;3.40;1.50;;;;;;;;;;2046727;28;20035;-79
2021/11/14 07:14:17;;;;;;;4.00;1.25;;;;;;;;;;2042837;28;20113;-79
2021/11/14 07:15:36;;;;;;;2.70;1.52;;;;;;;;;;2045208;28;20504;-79
2021/11/14 07:16:56;;;;;;;2.63;1.70;;;;;;;;;;2049331;28;20027;-79
2021/11/14 07:18:15;;;;;;;6.47;1.83;;;;;;;;;;2045788;28;20512;-79
2021/11/14 07:19:33;;;;;;;3.92;1.63;;;;;;;;;;2042406;28;20771;-79
2021/11/14 07:20:52;;;;;;;3.55;2.30;;;;;;;;;;2054077;28;20025;-79
2021/11/14 07:22:12;;;;;;;2.80;1.38;;;;;;;;;;2044943;28;20027;-79
2021/11/14 07:23:30;;;;;;;2.58;1.52;;;;;;;;;;2048788;28;20133;-79
2021/11/14 07:24:49;;;;;;;4.28;1.73;;;;;;;;;;2048160;28;20039;-79
2021/11/14 07:26:08;;;;;;;5.55;1.75;;;;;;;;;;2045955;28;20454;-79
2021/11/14 07:27:28;;;;;;;2.35;1.70;;;;;;;;;;2047402;28;20527;-79
2021/11/14 07:28:46;;;;;;;3.53;1.92;;;;;;;;;;2044278;28;20515;-79
2021/11/14 07:30:05;;;;;;;7.22;1.77;;;;;;;;;;2046983;28;20485;-79
2021/11/14 07:31:24;;;;;;;4.65;2.13;;;;;;;;;;2051215;28;20024;-79
2021/11/14 07:32:43;;;;;;;2.33;1.83;;;;;;;;;;2045010;28;20031;-79
2021/11/14 07:34:02;;;;;;;3.72;1.80;;;;;;;;;;2046359;29;20036;-79
2021/11/14 07:35:23;;;;;;;3.38;1.55;;;;;;;;;;2044733;28;20122;-79
2021/11/14 07:36:41;;;;;;;2.45;1.90;;;;;;;;;;2047161;28;20074;-79
2021/11/14 07:38:02;;;;;;;2.13;1.75;;;;;;;;;;2047698;28;20031;-79
2021/11/14 07:39:21;;;;;;;3.88;1.95;;;;;;;;;;2046235;28;20035;-80
2021/11/14 07:40:40;;;;;;;5.40;1.35;;;;;;;;;;2047791;28;20039;-79
2021/11/14 07:41:58;;;;;;;5.53;1.60;;;;;;;;;;2046419;28;20039;-79
2021/11/14 07:43:17;;;;;;;3.95;1.45;;;;;;;;;;2046431;28;20027;-79
2021/11/14 07:44:36;;;;;;;2.60;1.27;;;;;;;;;;2048018;28;20040;-79
2021/11/14 07:45:55;;;;;;;7.18;1.63;;;;;;;;;;2048912;28;20472;-79
2021/11/14 07:47:15;;;;;;;3.15;1.60;;;;;;;;;;2047484;28;20035;-79
2021/11/14 07:48:34;;;;;;;2.03;1.50;;;;;;;;;;2047505;28;20208;-80
2021/11/14 07:49:52;;;;;;;5.70;1.42;;;;;;;;;;2043406;28;20455;-80
2021/11/14 07:51:11;;;;;;;2.60;1.20;;;;;;;;;;2043970;29;20439;-79
2021/11/14 07:52:31;;;;;;;3.33;1.55;;;;;;;;;;2052585;28;20031;-80